This is the latest recevied weather packets stored in our database for station/object W6DSP. If no packets are shown the sender has not sent any weather packets the latest 10 day(s).
| Time | Temp. | Humidity | Pressure | Rain* | Wind** | Luminosity | Snow |
|---|---|---|---|---|---|---|---|
| 1777971833 | 13.33° C | 89% | 1004 hPa | 0 mm | - | - | - |
| 1777971087 | 13.33° C | 89% | 1004.1 hPa | 0 mm | - | - | - |
| 1777970361 | 13.33° C | 89% | 1003.9 hPa | 0 mm | - | - | - |
| 1777969647 | 13.33° C | 89% | 1003.9 hPa | 0 mm | - | - | - |
| 1777968921 | 13.33° C | 89% | 1004.1 hPa | 0 mm | - | - | - |
| 1777968172 | 13.33° C | 89% | 1003.6 hPa | 0 mm | - | - | - |
| 1777967467 | 13.33° C | 89% | 1004.1 hPa | 0 mm | - | - | - |
| 1777966746 | 13.33° C | 89% | 1003.9 hPa | 0 mm | - | - | - |
| 1777966003 | 13.33° C | 89% | 1003.8 hPa | 0 mm | - | - | - |
| 1777965311 | 13.33° C | 89% | 1003.8 hPa | 0 mm | - | - | - |
| 1777964591 | 13.33° C | 89% | 1004.1 hPa | 0 mm | - | - | - |
| 1777963878 | 13.33° C | 89% | 1003.9 hPa | 0 mm | - | - | - |
| 1777963152 | 13.89° C | 89% | 1003.9 hPa | 0 mm | - | - | - |
| 1777962433 | 13.89° C | 89% | 1003.7 hPa | 2.03 mm | - | - | - |
| 1777961741 | 13.89° C | 89% | 1004.6 hPa | 3.3 mm | - | - | - |
| 1777961013 | 13.89° C | 89% | 1005.5 hPa | 3.81 mm | - | - | - |
| 1777960268 | 13.89° C | 88% | 1005.3 hPa | 4.32 mm | - | - | - |
| 1777959574 | 14.44° C | 87% | 1005.2 hPa | 1.02 mm | - | - | - |
| 1777958843 | 14.44° C | 86% | 1004.8 hPa | 2.54 mm | - | - | - |
| 1777958148 | 15° C | 84% | 1004.6 hPa | 0 mm | - | - | - |
| 1777957411 | 15° C | 81% | 1004.7 hPa | 0 mm | - | - | - |
| 1777956713 | 16.11° C | 77% | 1004.5 hPa | 0 mm | - | - | - |
| 1777956017 | 17.22° C | 71% | 1004.5 hPa | 0 mm | - | - | - |
| 1777955327 | 17.78° C | 67% | 1004.1 hPa | 0 mm | - | - | - |
| 1777954623 | 18.33° C | 65% | 1003.7 hPa | 0 mm | - | - | - |
* Rain latest hour (hover to see other rain measurements)
** Current wind speed in m/s (hover to see current wind gust speed)